Historique des mesures à Cassis (13260), France
Quotidien Résumé Avril 3, 2020 Unités:  Métrique    US   Métrique/US
Quotidien Hebdomadaire Mensuel Annuel
  Maximum: Minimum: Moyenne:
Température: 26.9 °C 20.4 °C 24.2 °C
Point de rosée: 17.2 °C 9.3 °C 11.8 °C
Humidité: 58% 35% 47%
Vitesse du vent: 29.2km/h 3.2km/h 17.5km/h
Rafales: 61.6km/h - -
Vent- - SW
Pression: 1011.1 hPa 1007.9 hPa -
Précipitations: 0.0 mm    
Historical Graphs
 
 
Mesures pour : Avril 3, 2020
Heure Temperature Point de rosée Pression Vent Vitesse du vent Rafales Humidité Pluie (par heure)
00:11 26.1 °C 17.2 °C 1008.8 hPa West 23 km/h 23 km/h 58% 0.0 mm
01:11 25.4 °C 16.2 °C 1008.8 hPa NW 6.8 km/h 27.4 km/h 57% 0.0 mm
02:11 24.4 °C 15.3 °C 1009.6 hPa North 14.8 km/h 25.2 km/h 57% 0.0 mm
03:11 23.1 °C 14.1 °C 1009.7 hPa NNE 3.2 km/h 25.6 km/h 57% 0.0 mm
04:11 23.6 °C 12.6 °C 1009.8 hPa NW 23.4 km/h 28.8 km/h 50% 0.0 mm
05:11 21.5 °C 12.3 °C 1009.3 hPa North 17.3 km/h 36 km/h 56% 0.0 mm
06:11 20.6 °C 12 °C 1009.5 hPa NW 16.9 km/h 38.2 km/h 58% 0.0 mm
07:11 20.4 °C 11.6 °C 1010.0 hPa WNW 19.8 km/h 28.1 km/h 57% 0.0 mm
08:11 20.4 °C 11.6 °C 1009.5 hPa North 15.1 km/h 37.8 km/h 57% 0.0 mm
09:11 20.8 °C 12 °C 1009.7 hPa North 27.7 km/h 38.9 km/h 57% 0.0 mm
10:11 22.9 °C 12.2 °C 1010.0 hPa WNW 8.3 km/h 20.9 km/h 51% 0.0 mm
11:11 24.4 °C 11.3 °C 1009.9 hPa WNW 29.2 km/h 38.5 km/h 44% 0.0 mm
12:11 25.1 °C 11.3 °C 1010.6 hPa NNW 17.6 km/h 46.1 km/h 42% 0.0 mm
13:11 25.4 °C 10.9 °C 1010.0 hPa WNW 27.4 km/h 49.7 km/h 40% 0.0 mm
14:11 26.1 °C 10.6 °C 1009.9 hPa NNW 11.5 km/h 36.7 km/h 38% 0.0 mm
15:11 26.4 °C 10.5 °C 1009.4 hPa WNW 20.9 km/h 38.9 km/h 37% 0.0 mm
16:11 26.9 °C 10.1 °C 1008.5 hPa NNW 10.1 km/h 43.9 km/h 35% 0.0 mm
17:11 26.9 °C 10.1 °C 1007.9 hPa North 18 km/h 36.4 km/h 35% 0.0 mm
18:11 26.9 °C 10.1 °C 1008.3 hPa NNW 11.9 km/h 48.2 km/h 35% 0.0 mm
19:11 26.2 °C 10.3 °C 1008.3 hPa NW 27.7 km/h 61.6 km/h 37% 0.0 mm
20:11 25.4 °C 10.4 °C 1008.9 hPa North 10.8 km/h 42.8 km/h 39% 0.0 mm
21:11 24.6 °C 10.5 °C 1009.6 hPa NW 26.3 km/h 29.2 km/h 41% 0.0 mm
22:11 23.8 °C 10.1 °C 1010.3 hPa WNW 11.9 km/h 27 km/h 42% 0.0 mm
23:11 23.3 °C 9.3 °C 1011.1 hPa WNW 21.2 km/h 26.6 km/h 41% 0.0 mm
Observations météo à CASSIS
WU-History script by Weather Underground - 2 mb